Time;durP1;ratioP1;P1;durP2;ratioP2;P2;SDS_P1;SDS_P2;PMS_P1;PMS_P2;Temp;Humidity;BMP_temperature;BMP_pressure;BME280_temperature;BME280_humidity;BME280_pressure;Samples;Min_cycle;Max_cycle;Signal;HPM_P1;HPM_P2
2022/01/10 00:00:18;;;;;;;19.50;12.00;;;3.50;99.90;;;;;;5111838;28;20196;-56
2022/01/10 00:02:49;;;;;;;17.97;12.70;;;3.50;99.90;;;;;;5112112;28;20702;-57
2022/01/10 00:05:18;;;;;;;20.07;13.37;;;3.50;99.90;;;;;;5111566;28;20208;-55
2022/01/10 00:07:46;;;;;;;17.53;11.63;;;3.40;99.90;;;;;;5111434;28;20589;-56
2022/01/10 00:10:16;;;;;;;20.57;12.83;;;3.40;99.90;;;;;;5111786;28;20261;-56
2022/01/10 00:12:44;;;;;;;14.83;10.77;;;3.40;99.90;;;;;;5111854;28;20203;-56
2022/01/10 00:15:15;;;;;;;16.23;11.40;;;3.40;99.90;;;;;;5111791;28;20214;-55
2022/01/10 00:17:44;;;;;;;18.30;12.00;;;3.40;99.90;;;;;;5124595;27;20244;-56
2022/01/10 00:20:15;;;;;;;18.83;11.93;;;3.40;99.90;;;;;;5132485;27;20199;-56
2022/01/10 00:22:45;;;;;;;16.70;12.30;;;3.40;99.90;;;;;;5132353;27;20218;-56
2022/01/10 00:25:17;;;;;;;15.37;11.77;;;3.40;99.90;;;;;;5129335;27;20220;-56
2022/01/10 00:27:46;;;;;;;17.80;11.03;;;3.50;99.90;;;;;;5110857;28;20301;-55
2022/01/10 00:30:14;;;;;;;24.63;17.57;;;3.40;99.90;;;;;;5111298;28;20204;-56
2022/01/10 00:32:45;;;;;;;16.83;12.87;;;3.50;99.90;;;;;;5111349;28;20203;-55
2022/01/10 00:35:14;;;;;;;17.33;11.33;;;3.50;99.90;;;;;;5111564;28;20204;-56
2022/01/10 00:37:43;;;;;;;14.80;10.93;;;3.40;99.90;;;;;;5110821;28;20222;-56
2022/01/10 00:40:13;;;;;;;14.83;11.40;;;3.40;99.90;;;;;;5111751;28;20606;-56
2022/01/10 00:42:43;;;;;;;23.30;14.13;;;3.40;99.90;;;;;;5111105;28;20199;-55
2022/01/10 00:45:17;;;;;;;14.83;10.13;;;3.40;99.90;;;;;;5111578;28;20696;-55
2022/01/10 00:47:49;;;;;;;13.37;9.50;;;3.40;99.90;;;;;;5111851;28;20309;-56
2022/01/10 00:50:18;;;;;;;17.43;11.00;;;3.50;99.90;;;;;;5111365;28;20244;-57
2022/01/10 00:52:46;;;;;;;13.80;10.37;;;3.50;99.90;;;;;;5110979;28;20203;-56
2022/01/10 00:55:14;;;;;;;17.77;10.37;;;3.50;99.90;;;;;;5094037;28;20198;-55
2022/01/10 00:57:44;;;;;;;13.80;9.43;;;3.40;99.90;;;;;;5094828;28;20220;-55
2022/01/10 01:00:15;;;;;;;19.57;11.17;;;3.40;99.90;;;;;;5090236;28;20200;-55
2022/01/10 01:02:43;;;;;;;14.30;10.30;;;3.40;99.90;;;;;;5090743;28;20206;-56
2022/01/10 01:05:14;;;;;;;17.90;10.73;;;3.30;99.90;;;;;;5090382;28;20208;-56
2022/01/10 01:07:43;;;;;;;16.37;10.57;;;3.30;99.90;;;;;;5103181;28;20225;-55
2022/01/10 01:10:40;;;;;;;16.70;10.20;;;3.40;99.90;;;;;;5110553;28;20729;-55
2022/01/10 01:13:22;;;;;;;15.87;10.97;;;3.40;99.90;;;;;;5110554;28;20676;-55
2022/01/10 01:16:08;;;;;;;19.33;11.20;;;3.40;99.90;;;;;;5110563;28;20748;-55
2022/01/10 01:24:13;;;;;;;15.67;9.40;;;3.40;99.90;;;;;;5092508;28;20255;-55
2022/01/10 01:26:43;;;;;;;20.13;10.33;;;3.40;99.90;;;;;;5103520;28;20211;-57
2022/01/10 01:29:16;;;;;;;18.37;10.40;;;3.40;99.90;;;;;;5110604;28;20567;-57
2022/01/10 01:31:44;;;;;;;17.83;9.80;;;3.50;99.90;;;;;;5110844;28;20228;-55
2022/01/10 01:34:14;;;;;;;17.77;10.77;;;3.50;99.90;;;;;;5110411;28;20200;-57
2022/01/10 01:36:45;;;;;;;14.63;9.97;;;3.50;99.90;;;;;;5114755;28;20260;-56
2022/01/10 01:39:19;;;;;;;14.90;9.33;;;3.50;99.90;;;;;;5131191;28;20289;-55
2022/01/10 01:41:48;;;;;;;16.83;9.73;;;3.50;99.90;;;;;;5124195;28;20202;-56
2022/01/10 01:44:18;;;;;;;16.67;10.17;;;3.50;99.90;;;;;;5112189;28;20233;-56
2022/01/10 01:46:46;;;;;;;18.37;9.53;;;3.50;99.90;;;;;;5114833;28;20207;-56
2022/01/10 01:49:15;;;;;;;15.93;9.77;;;3.50;99.90;;;;;;5113943;28;20329;-56
2022/01/10 01:51:43;;;;;;;12.57;9.10;;;3.60;99.90;;;;;;5114446;28;20263;-58
2022/01/10 01:54:11;;;;;;;12.70;8.77;;;3.60;99.90;;;;;;5114085;28;20200;-57
2022/01/10 01:56:40;;;;;;;17.17;10.20;;;3.60;99.90;;;;;;5114556;28;20231;-56
2022/01/10 01:59:10;;;;;;;18.77;9.87;;;3.60;99.90;;;;;;5113878;28;20703;-56
2022/01/10 02:01:39;;;;;;;15.57;10.80;;;3.60;99.90;;;;;;5114126;28;20675;-57
2022/01/10 02:04:08;;;;;;;14.77;9.50;;;3.60;99.90;;;;;;5114267;27;20212;-55
2022/01/10 02:06:36;;;;;;;13.73;9.57;;;3.60;99.90;;;;;;5114320;28;20259;-55
2022/01/10 02:09:04;;;;;;;14.53;10.17;;;3.60;99.90;;;;;;5113382;28;20228;-55
2022/01/10 02:11:32;;;;;;;14.13;10.03;;;3.60;99.90;;;;;;5116496;27;20202;-56
2022/01/10 02:14:01;;;;;;;14.57;10.33;;;3.60;99.90;;;;;;5134483;27;20671;-56
2022/01/10 02:16:40;;;;;;;15.30;10.30;;;3.50;99.90;;;;;;5134486;27;20679;-56
2022/01/10 02:19:10;;;;;;;17.40;10.97;;;3.50;99.90;;;;;;5119746;27;20234;-56
2022/01/10 02:21:40;;;;;;;17.10;11.23;;;3.50;99.90;;;;;;5113590;28;20579;-56
2022/01/10 02:24:08;;;;;;;13.47;9.90;;;3.50;99.90;;;;;;5113771;28;20222;-56
2022/01/10 02:26:37;;;;;;;15.37;10.83;;;3.50;99.90;;;;;;5113927;28;20206;-57
2022/01/10 02:29:06;;;;;;;18.50;11.57;;;3.60;99.90;;;;;;5112595;28;20988;-55
2022/01/10 02:31:35;;;;;;;18.30;10.50;;;3.50;99.90;;;;;;5114115;28;20203;-54
2022/01/10 02:34:04;;;;;;;17.57;11.17;;;3.40;99.90;;;;;;5113531;28;20583;-55
2022/01/10 02:36:32;;;;;;;20.87;11.37;;;3.40;99.90;;;;;;5116528;27;20557;-56
2022/01/10 02:39:03;;;;;;;17.20;10.80;;;3.50;99.90;;;;;;5133939;27;20226;-56
2022/01/10 02:41:33;;;;;;;15.30;11.13;;;3.40;99.90;;;;;;5134083;27;20257;-55
2022/01/10 02:44:06;;;;;;;19.97;11.57;;;3.40;99.90;;;;;;5134081;27;20207;-56
2022/01/10 02:46:36;;;;;;;19.80;13.27;;;3.50;99.90;;;;;;5123627;27;20252;-55
2022/01/10 02:49:09;;;;;;;17.23;11.27;;;3.50;99.90;;;;;;5113647;28;20255;-56
2022/01/10 02:51:37;;;;;;;17.23;11.60;;;3.50;99.90;;;;;;5113318;28;20206;-56
2022/01/10 02:54:08;;;;;;;18.23;11.93;;;3.50;99.90;;;;;;5112812;28;20676;-55
2022/01/10 02:56:45;;;;;;;15.87;10.97;;;3.60;99.90;;;;;;5113303;28;20233;-55
2022/01/10 02:59:13;;;;;;;17.93;10.77;;;3.60;99.90;;;;;;5107382;28;20216;-55
2022/01/10 03:01:41;;;;;;;18.60;10.40;;;3.50;99.90;;;;;;5092928;28;20208;-55
2022/01/10 03:04:09;;;;;;;15.10;10.20;;;3.60;99.90;;;;;;5093059;28;20219;-56
2022/01/10 03:06:38;;;;;;;19.30;10.43;;;3.50;99.90;;;;;;5095977;28;20767;-55
2022/01/10 03:09:07;;;;;;;17.30;11.57;;;3.50;99.90;;;;;;5113365;28;20231;-55
2022/01/10 03:11:37;;;;;;;19.57;11.60;;;3.50;99.90;;;;;;5098211;27;20239;-55
2022/01/10 03:14:05;;;;;;;18.60;11.43;;;3.50;99.90;;;;;;5129415;27;20227;-56
2022/01/10 03:16:34;;;;;;;18.00;10.87;;;3.50;99.90;;;;;;5113090;28;20278;-55
2022/01/10 03:19:02;;;;;;;16.93;9.37;;;3.60;99.90;;;;;;5112644;28;20648;-56
2022/01/10 03:21:30;;;;;;;14.47;10.17;;;3.60;99.90;;;;;;5112925;28;20207;-55
2022/01/10 03:23:59;;;;;;;14.63;9.20;;;3.60;99.90;;;;;;5112606;28;20268;-56
2022/01/10 03:26:29;;;;;;;15.77;10.10;;;3.60;99.90;;;;;;5112667;28;20255;-56
2022/01/10 03:28:57;;;;;;;17.70;11.00;;;3.60;99.90;;;;;;5111786;28;20586;-55
2022/01/10 03:31:25;;;;;;;13.77;9.83;;;3.60;99.90;;;;;;5112397;28;20231;-55
2022/01/10 03:33:53;;;;;;;15.80;10.53;;;3.60;99.90;;;;;;5112645;28;20231;-56
2022/01/10 03:36:21;;;;;;;15.00;10.00;;;3.60;99.90;;;;;;5113887;27;20256;-55
2022/01/10 03:38:49;;;;;;;17.23;11.10;;;3.60;99.90;;;;;;5113041;27;20220;-57
2022/01/10 03:41:17;;;;;;;15.60;11.07;;;3.60;99.90;;;;;;5112724;28;20205;-55
2022/01/10 03:43:48;;;;;;;16.67;11.13;;;3.60;99.90;;;;;;5112456;28;20227;-56
2022/01/10 03:46:16;;;;;;;17.20;11.57;;;3.70;99.90;;;;;;5112316;28;20266;-56
2022/01/10 03:48:44;;;;;;;15.30;10.30;;;3.70;99.90;;;;;;5112025;28;20231;-56
2022/01/10 03:51:12;;;;;;;17.90;11.10;;;3.70;99.90;;;;;;5111974;28;20213;-55
2022/01/10 03:53:40;;;;;;;15.23;10.33;;;3.70;99.90;;;;;;5112276;28;20586;-57
2022/01/10 03:56:09;;;;;;;17.00;10.87;;;3.70;99.90;;;;;;5111497;28;20201;-54
2022/01/10 03:58:37;;;;;;;17.27;10.97;;;3.70;99.90;;;;;;5110092;28;20256;-55
2022/01/10 04:01:08;;;;;;;15.43;10.57;;;3.70;99.90;;;;;;5091561;28;20246;-55
2022/01/10 04:03:38;;;;;;;18.37;11.10;;;3.70;99.90;;;;;;5092041;28;20583;-55
2022/01/10 04:06:07;;;;;;;15.97;10.27;;;3.70;99.90;;;;;;5090612;28;20618;-56
2022/01/10 04:08:35;;;;;;;18.70;10.77;;;3.70;99.90;;;;;;5091280;28;20274;-56
2022/01/10 04:11:04;;;;;;;16.87;10.80;;;3.70;99.90;;;;;;5107663;28;20261;-57
2022/01/10 04:13:32;;;;;;;22.40;12.17;;;3.60;99.90;;;;;;5131001;27;20230;-56
2022/01/10 04:16:00;;;;;;;18.67;11.37;;;3.60;99.90;;;;;;5114133;27;20737;-55
2022/01/10 04:18:30;;;;;;;18.50;10.87;;;3.60;99.90;;;;;;5111592;28;20223;-56
2022/01/10 04:20:58;;;;;;;14.30;9.43;;;3.60;99.90;;;;;;5111636;28;20207;-56
2022/01/10 04:23:27;;;;;;;16.40;9.07;;;3.60;99.90;;;;;;5111293;28;20210;-56
2022/01/10 04:25:56;;;;;;;18.10;12.50;;;3.60;99.90;;;;;;5112114;28;20617;-55
2022/01/10 04:28:24;;;;;;;16.20;10.20;;;3.50;99.90;;;;;;5110487;28;20224;-55
2022/01/10 04:30:52;;;;;;;17.43;9.97;;;3.60;99.90;;;;;;5111886;28;20575;-55
2022/01/10 04:33:21;;;;;;;18.80;11.20;;;3.60;99.90;;;;;;5111755;28;20199;-55
2022/01/10 04:35:50;;;;;;;20.37;10.67;;;3.60;99.90;;;;;;5111520;28;20264;-56
2022/01/10 04:38:18;;;;;;;16.87;10.33;;;3.70;99.90;;;;;;5124986;28;20219;-56
2022/01/10 04:40:47;;;;;;;16.90;9.90;;;3.60;99.90;;;;;;5111233;28;20206;-56
2022/01/10 04:43:15;;;;;;;16.00;9.50;;;3.60;99.90;;;;;;5111218;28;20230;-55
2022/01/10 04:45:44;;;;;;;21.13;9.93;;;3.60;99.90;;;;;;5111291;28;20203;-56
2022/01/10 04:48:12;;;;;;;17.80;10.17;;;3.60;99.90;;;;;;5111412;28;20237;-56
2022/01/10 04:51:10;;;;;;;13.70;9.70;;;3.60;99.90;;;;;;5110614;28;20232;-56
2022/01/10 04:53:36;;;;;;;15.90;10.23;;;3.60;99.90;;;;;;5111345;28;20200;-56
2022/01/10 04:56:05;;;;;;;19.27;11.27;;;3.60;99.90;;;;;;5111016;28;20246;-53
2022/01/10 04:58:34;;;;;;;16.20;9.73;;;3.60;99.90;;;;;;5110439;28;20231;-57
2022/01/10 05:01:03;;;;;;;18.90;10.00;;;3.70;99.90;;;;;;5091283;28;20618;-56
2022/01/10 05:03:32;;;;;;;19.13;12.17;;;3.60;99.90;;;;;;5090798;28;20685;-53
2022/01/10 05:06:00;;;;;;;16.87;10.40;;;3.60;99.90;;;;;;5091086;28;20234;-54
2022/01/10 05:08:28;;;;;;;13.97;10.07;;;3.60;99.90;;;;;;5109671;28;20223;-54
2022/01/10 05:10:58;;;;;;;16.23;10.43;;;3.60;99.90;;;;;;5110978;28;20704;-56
2022/01/10 05:13:27;;;;;;;19.73;11.60;;;3.60;99.90;;;;;;5129028;28;20225;-56
2022/01/10 05:15:55;;;;;;;17.97;11.20;;;3.60;99.90;;;;;;5119629;27;20210;-56
2022/01/10 05:18:24;;;;;;;16.87;10.00;;;3.60;99.90;;;;;;5113067;28;20313;-54
2022/01/10 05:20:53;;;;;;;18.33;10.27;;;3.60;99.90;;;;;;5115220;28;20607;-55
2022/01/10 05:23:21;;;;;;;17.97;10.10;;;3.60;99.90;;;;;;5115038;28;20218;-56
2022/01/10 05:25:49;;;;;;;20.93;10.60;;;3.60;99.90;;;;;;5115358;28;20207;-55
2022/01/10 05:28:19;;;;;;;15.70;9.23;;;3.70;99.90;;;;;;5114334;28;20219;-53
2022/01/10 05:30:49;;;;;;;16.90;9.87;;;3.70;99.90;;;;;;5114933;27;20249;-55
2022/01/10 05:33:17;;;;;;;16.33;10.10;;;3.60;99.90;;;;;;5114909;28;20255;-56
2022/01/10 05:35:46;;;;;;;17.77;11.13;;;3.60;99.90;;;;;;5114436;28;20279;-54
2022/01/10 05:38:14;;;;;;;19.27;11.63;;;3.60;99.90;;;;;;5132407;27;20268;-55
2022/01/10 05:40:43;;;;;;;19.93;12.17;;;3.60;99.90;;;;;;5135612;27;20203;-56
2022/01/10 05:43:12;;;;;;;18.23;11.07;;;3.60;99.90;;;;;;5128567;27;20200;-55
2022/01/10 05:45:44;;;;;;;20.37;10.87;;;3.60;99.90;;;;;;5114525;28;20675;-57
2022/01/10 05:48:20;;;;;;;19.60;11.13;;;3.60;99.90;;;;;;5114555;28;20287;-56
2022/01/10 05:50:48;;;;;;;21.37;11.97;;;3.60;99.90;;;;;;5114237;28;20211;-56
2022/01/10 05:53:16;;;;;;;27.70;14.93;;;3.60;99.90;;;;;;5114552;28;20202;-56
2022/01/10 05:55:45;;;;;;;21.53;13.13;;;3.70;99.90;;;;;;5114553;28;20225;-55
2022/01/10 05:58:13;;;;;;;22.50;13.20;;;3.60;99.90;;;;;;5113488;28;20281;-56
2022/01/10 06:00:41;;;;;;;20.47;12.67;;;3.70;99.90;;;;;;5114233;28;20211;-57
2022/01/10 06:03:11;;;;;;;21.73;11.40;;;3.70;99.90;;;;;;5114133;28;20245;-55
2022/01/10 06:05:40;;;;;;;23.73;11.87;;;3.70;99.90;;;;;;5114903;28;20189;-55
2022/01/10 06:08:09;;;;;;;21.60;11.37;;;3.60;99.90;;;;;;5098511;28;20281;-55
2022/01/10 06:10:37;;;;;;;23.03;13.00;;;3.70;99.90;;;;;;5106266;28;20228;-57
2022/01/10 06:13:06;;;;;;;28.93;13.37;;;3.70;99.90;;;;;;5129347;27;20213;-56
2022/01/10 06:15:34;;;;;;;19.37;12.37;;;3.70;99.90;;;;;;5135337;27;20235;-55
2022/01/10 06:18:03;;;;;;;21.53;12.03;;;3.70;99.90;;;;;;5134244;27;20228;-56
2022/01/10 06:20:32;;;;;;;20.33;11.80;;;3.60;99.90;;;;;;5134617;27;20255;-55
2022/01/10 06:23:00;;;;;;;24.00;13.57;;;3.60;99.90;;;;;;5134390;27;20214;-56
2022/01/10 06:25:29;;;;;;;17.10;11.17;;;3.70;99.90;;;;;;5131602;27;20252;-55
2022/01/10 06:27:57;;;;;;;32.23;17.70;;;3.70;99.90;;;;;;5113837;28;20276;-55
2022/01/10 06:30:27;;;;;;;26.80;13.70;;;3.70;99.90;;;;;;5112939;28;20315;-56
2022/01/10 06:32:55;;;;;;;31.97;18.70;;;3.70;99.90;;;;;;5114159;28;20252;-54
2022/01/10 06:35:23;;;;;;;57.63;32.37;;;3.80;99.90;;;;;;5113658;28;20734;-55
2022/01/10 06:37:53;;;;;;;48.67;26.77;;;3.70;99.90;;;;;;5127005;27;20223;-55
2022/01/10 06:40:21;;;;;;;38.73;22.83;;;3.70;99.90;;;;;;5133933;27;20203;-57
2022/01/10 06:42:50;;;;;;;24.23;12.67;;;3.70;99.90;;;;;;5115796;27;20204;-55
2022/01/10 06:45:18;;;;;;;22.43;13.63;;;3.70;99.90;;;;;;5113762;28;20203;-57
2022/01/10 06:47:47;;;;;;;20.53;13.40;;;3.70;99.90;;;;;;5113195;28;20222;-55
2022/01/10 06:50:15;;;;;;;21.43;13.87;;;3.70;99.90;;;;;;5113359;28;20219;-56
2022/01/10 06:52:43;;;;;;;21.90;12.27;;;3.70;99.90;;;;;;5113340;28;20206;-55
2022/01/10 06:55:13;;;;;;;23.67;14.40;;;3.70;99.90;;;;;;5113393;28;20208;-55
2022/01/10 06:57:41;;;;;;;34.27;20.77;;;3.70;99.90;;;;;;5113124;28;20273;-56
2022/01/10 07:00:10;;;;;;;21.53;14.37;;;3.60;99.90;;;;;;5111755;28;20245;-55
2022/01/10 07:02:39;;;;;;;23.83;14.07;;;3.60;99.90;;;;;;5112928;28;20208;-55
2022/01/10 07:05:08;;;;;;;21.33;12.60;;;3.70;99.90;;;;;;5113214;28;20212;-56
2022/01/10 07:07:36;;;;;;;25.73;16.40;;;3.70;99.90;;;;;;5106135;28;20832;-55
2022/01/10 07:10:05;;;;;;;20.67;13.17;;;3.70;99.90;;;;;;5112672;28;20733;-55
2022/01/10 07:12:35;;;;;;;16.90;10.50;;;3.70;99.90;;;;;;5112564;28;20753;-55
2022/01/10 07:15:03;;;;;;;18.43;11.47;;;3.70;99.90;;;;;;5113034;28;20207;-55
2022/01/10 07:17:32;;;;;;;23.77;12.60;;;3.70;99.90;;;;;;5113191;28;20252;-57
2022/01/10 07:20:01;;;;;;;17.07;11.07;;;3.70;99.90;;;;;;5112964;28;20206;-55
2022/01/10 07:22:29;;;;;;;16.73;10.63;;;3.60;99.90;;;;;;5112819;28;20205;-55
2022/01/10 07:24:57;;;;;;;20.53;10.77;;;3.70;99.90;;;;;;5112928;28;20188;-55
2022/01/10 07:27:25;;;;;;;17.03;10.60;;;3.60;99.90;;;;;;5112350;27;20238;-55
2022/01/10 07:29:55;;;;;;;17.50;10.57;;;3.70;99.90;;;;;;5112325;28;20200;-55
2022/01/10 07:32:25;;;;;;;14.80;9.67;;;3.60;99.90;;;;;;5112727;28;20302;-56
2022/01/10 07:34:53;;;;;;;18.07;10.40;;;3.60;99.90;;;;;;5112768;28;20260;-54
2022/01/10 07:37:21;;;;;;;15.77;9.20;;;3.70;99.90;;;;;;5118728;27;20273;-56
2022/01/10 07:39:49;;;;;;;19.80;13.03;;;3.70;99.90;;;;;;5112176;28;20207;-56
2022/01/10 07:42:17;;;;;;;18.27;11.07;;;3.80;99.90;;;;;;5111300;28;20247;-55
2022/01/10 07:44:45;;;;;;;18.47;12.80;;;3.80;99.90;;;;;;5112212;28;20259;-55
2022/01/10 07:47:15;;;;;;;36.03;20.23;;;3.80;99.90;;;;;;5112355;28;20232;-55
2022/01/10 07:49:43;;;;;;;46.97;32.43;;;3.70;99.90;;;;;;5112597;28;20261;-56
2022/01/10 07:52:12;;;;;;;25.27;15.67;;;3.70;99.90;;;;;;5111138;28;20817;-57
2022/01/10 07:54:41;;;;;;;30.23;19.97;;;3.70;99.90;;;;;;5112393;28;20604;-54
2022/01/10 07:57:09;;;;;;;18.23;12.53;;;3.70;99.90;;;;;;5118079;27;20199;-56
2022/01/10 07:59:37;;;;;;;19.10;12.43;;;3.70;99.90;;;;;;5121208;27;20233;-54
2022/01/10 08:02:05;;;;;;;21.20;15.10;;;3.70;99.90;;;;;;5112345;28;20203;-54
2022/01/10 08:04:36;;;;;;;23.97;14.33;;;3.70;99.90;;;;;;5111972;28;20243;-53
2022/01/10 08:07:05;;;;;;;20.13;11.97;;;3.80;99.90;;;;;;5112831;28;20236;-55
2022/01/10 08:09:33;;;;;;;16.30;10.77;;;3.80;99.90;;;;;;5111811;28;20277;-55
2022/01/10 08:12:01;;;;;;;18.90;11.93;;;3.90;99.90;;;;;;5124917;27;20267;-55
2022/01/10 08:14:30;;;;;;;20.67;12.13;;;3.90;99.90;;;;;;5132202;27;20575;-54
2022/01/10 08:16:59;;;;;;;18.37;10.40;;;3.90;99.90;;;;;;5132504;27;20232;-55
2022/01/10 08:19:30;;;;;;;18.20;12.17;;;4.00;99.90;;;;;;5132224;27;20277;-56
2022/01/10 08:21:59;;;;;;;21.37;12.90;;;4.00;99.90;;;;;;5132450;27;20221;-55
2022/01/10 08:24:29;;;;;;;17.73;11.13;;;4.00;99.90;;;;;;5117991;27;20216;-54
2022/01/10 08:26:58;;;;;;;21.73;13.20;;;4.00;99.90;;;;;;5131617;27;20909;-55
2022/01/10 08:29:27;;;;;;;27.50;18.80;;;4.00;99.90;;;;;;5131076;27;20227;-56
2022/01/10 08:31:56;;;;;;;24.33;15.53;;;4.00;99.90;;;;;;5132120;27;20280;-54
2022/01/10 08:34:24;;;;;;;25.37;15.53;;;4.00;99.90;;;;;;5122634;27;20622;-55
2022/01/10 08:36:54;;;;;;;22.60;12.87;;;4.10;99.90;;;;;;5111520;28;20250;-56
2022/01/10 08:39:23;;;;;;;17.57;11.27;;;4.10;99.90;;;;;;5117634;28;20260;-55
2022/01/10 08:41:52;;;;;;;17.13;9.40;;;4.10;99.90;;;;;;5131960;27;20199;-58
2022/01/10 08:44:20;;;;;;;18.67;9.27;;;4.10;99.90;;;;;;5103584;27;20234;-53
2022/01/10 08:46:48;;;;;;;12.27;9.50;;;4.10;99.90;;;;;;5091331;28;20680;-56
2022/01/10 08:49:16;;;;;;;14.40;9.90;;;4.10;99.90;;;;;;5090926;28;20228;-54
2022/01/10 08:51:45;;;;;;;12.23;8.97;;;4.20;99.90;;;;;;5095733;28;20222;-56
2022/01/10 08:54:14;;;;;;;17.27;9.80;;;4.20;99.90;;;;;;5127886;27;20673;-55
2022/01/10 08:56:43;;;;;;;14.90;8.90;;;4.30;99.90;;;;;;5120404;27;20218;-57
2022/01/10 08:59:11;;;;;;;17.20;11.50;;;4.30;99.90;;;;;;5109100;28;20781;-56
2022/01/10 09:01:42;;;;;;;17.07;9.23;;;4.30;99.90;;;;;;5113735;28;20250;-55
2022/01/10 09:04:15;;;;;;;20.93;12.13;;;4.40;99.90;;;;;;5104816;28;20292;-55
2022/01/10 09:06:45;;;;;;;28.97;15.43;;;4.40;99.90;;;;;;5105081;27;20211;-54
2022/01/10 09:09:14;;;;;;;23.77;14.93;;;4.40;99.90;;;;;;5095393;28;20272;-55
2022/01/10 09:11:44;;;;;;;19.70;13.60;;;4.50;99.90;;;;;;5115013;28;20208;-55
2022/01/10 09:14:13;;;;;;;16.77;9.73;;;4.60;99.90;;;;;;5115204;28;20200;-55
2022/01/10 09:16:41;;;;;;;13.53;9.63;;;4.70;99.90;;;;;;5115193;28;20209;-54
2022/01/10 09:19:10;;;;;;;15.10;8.57;;;4.70;99.90;;;;;;5114563;28;20231;-54
2022/01/10 09:21:38;;;;;;;17.10;10.30;;;4.70;99.90;;;;;;5117688;27;20267;-55
2022/01/10 09:24:07;;;;;;;14.77;9.53;;;4.70;99.90;;;;;;5114715;28;20220;-55
2022/01/10 09:26:35;;;;;;;13.80;9.17;;;4.60;99.90;;;;;;5114500;28;20201;-55
2022/01/10 09:29:05;;;;;;;17.97;11.50;;;4.70;99.90;;;;;;5114256;28;20250;-56
2022/01/10 09:31:33;;;;;;;23.47;14.03;;;4.70;99.90;;;;;;5115107;27;20226;-55
2022/01/10 09:34:02;;;;;;;20.40;12.57;;;4.60;99.90;;;;;;5104426;27;20315;-56
2022/01/10 09:36:34;;;;;;;17.73;12.23;;;4.50;99.90;;;;;;5121608;27;20853;-57
2022/01/10 09:39:03;;;;;;;18.63;12.10;;;4.70;99.90;;;;;;5135055;27;20643;-56
2022/01/10 09:41:31;;;;;;;17.03;12.17;;;4.70;99.90;;;;;;5135189;27;20252;-58
2022/01/10 09:44:02;;;;;;;21.70;14.73;;;4.80;99.90;;;;;;5101393;28;20268;-56
2022/01/10 09:46:32;;;;;;;24.40;12.97;;;4.80;99.90;;;;;;5094295;28;20589;-56
2022/01/10 09:49:02;;;;;;;23.13;13.80;;;4.80;99.90;;;;;;5095268;27;20770;-57
2022/01/10 09:51:32;;;;;;;21.50;13.37;;;4.80;99.90;;;;;;5133391;27;20222;-56
2022/01/10 09:54:02;;;;;;;18.07;13.27;;;4.90;99.90;;;;;;5114313;28;20210;-57
2022/01/10 09:56:31;;;;;;;20.20;13.73;;;4.90;99.90;;;;;;5114395;28;20304;-57
2022/01/10 09:58:59;;;;;;;21.20;12.67;;;4.90;99.90;;;;;;5109986;28;20559;-56
2022/01/10 10:01:30;;;;;;;22.83;12.03;;;5.00;99.90;;;;;;5094148;28;20235;-56
2022/01/10 10:04:02;;;;;;;22.63;15.60;;;5.00;99.90;;;;;;5109164;27;20206;-57
2022/01/10 10:06:32;;;;;;;20.97;15.27;;;5.10;99.90;;;;;;5134999;27;20233;-56
2022/01/10 10:09:01;;;;;;;20.13;13.57;;;5.10;99.90;;;;;;5134953;27;20287;-56
2022/01/10 10:11:41;;;;;;;21.80;15.00;;;5.20;99.90;;;;;;5115716;27;20635;-57
2022/01/10 10:14:11;;;;;;;21.63;14.40;;;5.30;99.90;;;;;;5134277;27;20210;-56
2022/01/10 10:16:47;;;;;;;22.57;19.37;;;5.30;99.90;;;;;;5122561;27;20210;-57
2022/01/10 10:19:17;;;;;;;22.10;14.07;;;5.40;99.90;;;;;;5114144;28;20223;-56
2022/01/10 10:21:46;;;;;;;22.20;15.20;;;5.40;99.90;;;;;;5108604;28;20718;-57
2022/01/10 10:24:14;;;;;;;20.03;15.13;;;5.50;99.90;;;;;;5092903;28;20260;-56
2022/01/10 10:26:43;;;;;;;19.10;11.47;;;5.50;99.90;;;;;;5101424;28;20701;-57
2022/01/10 10:29:14;;;;;;;18.47;11.57;;;5.50;99.90;;;;;;5112433;28;20228;-57
2022/01/10 10:31:47;;;;;;;15.67;10.67;;;5.50;99.90;;;;;;5114179;28;20192;-57
2022/01/10 10:34:20;;;;;;;19.50;12.37;;;5.50;99.90;;;;;;5113950;27;20199;-57
2022/01/10 10:37:04;;;;;;;15.20;10.87;;;5.50;99.90;;;;;;5113582;28;20213;-57
2022/01/10 10:39:34;;;;;;;19.00;11.87;;;5.50;99.90;;;;;;5113272;28;20646;-57
2022/01/10 10:42:08;;;;;;;17.00;12.10;;;5.60;99.90;;;;;;5114181;28;20626;-57
2022/01/10 10:44:36;;;;;;;19.73;11.47;;;5.60;99.90;;;;;;5113312;28;20237;-56
2022/01/10 10:47:05;;;;;;;17.03;11.83;;;5.60;99.90;;;;;;5113773;28;20205;-57
2022/01/10 10:49:38;;;;;;;17.50;11.47;;;5.70;99.90;;;;;;5113160;28;20273;-58
2022/01/10 10:52:10;;;;;;;17.93;11.73;;;5.80;99.90;;;;;;5112941;28;20258;-57
2022/01/10 10:54:38;;;;;;;20.97;13.93;;;5.80;99.90;;;;;;5113037;28;20668;-57
2022/01/10 10:57:08;;;;;;;17.30;12.37;;;5.90;99.90;;;;;;5113617;28;20203;-57
2022/01/10 10:59:43;;;;;;;17.90;11.47;;;5.90;99.90;;;;;;5107251;28;20226;-57
2022/01/10 11:02:12;;;;;;;17.13;11.43;;;5.80;99.90;;;;;;5112654;28;20982;-56
2022/01/10 11:04:42;;;;;;;18.57;11.83;;;5.90;99.90;;;;;;5113520;28;20206;-57
2022/01/10 11:07:11;;;;;;;16.97;11.33;;;5.90;99.90;;;;;;5112839;28;20203;-56
2022/01/10 11:09:59;;;;;;;15.53;11.63;;;5.90;99.90;;;;;;5113436;28;20203;-56
2022/01/10 11:12:28;;;;;;;16.77;12.27;;;5.90;99.90;;;;;;5112365;28;20277;-57
2022/01/10 11:14:59;;;;;;;20.83;11.93;;;6.00;99.90;;;;;;5113224;28;20269;-57
2022/01/10 11:17:28;;;;;;;21.83;12.50;;;6.10;99.90;;;;;;5115371;27;20245;-57
2022/01/10 11:20:16;;;;;;;20.60;11.23;;;6.10;99.90;;;;;;5134275;27;20359;-57
2022/01/10 11:22:47;;;;;;;18.03;11.73;;;6.20;99.90;;;;;;5126881;27;20262;-56
2022/01/10 11:25:24;;;;;;;18.30;11.67;;;6.20;99.90;;;;;;5113032;28;20211;-57
2022/01/10 11:27:54;;;;;;;21.03;11.40;;;6.30;99.90;;;;;;5112115;28;20285;-57
2022/01/10 11:30:36;;;;;;;15.60;10.43;;;6.30;99.90;;;;;;5113097;28;20580;-57
2022/01/10 11:33:07;;;;;;;16.87;11.70;;;6.40;99.90;;;;;;5112484;28;20223;-57
2022/01/10 11:35:55;;;;;;;18.80;11.63;;;6.40;99.90;;;;;;5110102;27;20668;-57
2022/01/10 11:38:29;;;;;;;14.87;10.80;;;6.40;99.90;;;;;;5111879;28;20577;-57
2022/01/10 11:40:59;;;;;;;14.23;9.63;;;6.50;99.90;;;;;;5112426;28;20204;-56
2022/01/10 11:43:42;;;;;;;15.87;11.27;;;6.50;99.90;;;;;;5111527;28;20719;-56
2022/01/10 11:46:27;;;;;;;17.83;11.97;;;6.50;99.90;;;;;;5112430;28;20209;-57
2022/01/10 11:49:00;;;;;;;18.70;11.93;;;6.50;99.90;;;;;;5111808;28;20230;-56
2022/01/10 11:51:34;;;;;;;15.37;11.63;;;6.50;99.90;;;;;;5111830;28;20665;-56
2022/01/10 11:54:08;;;;;;;14.13;10.30;;;6.50;99.90;;;;;;5111664;28;20255;-57
2022/01/10 11:56:38;;;;;;;15.90;9.77;;;6.60;99.90;;;;;;5112171;28;20200;-57
2022/01/10 11:59:22;;;;;;;16.13;10.00;;;6.60;99.90;;;;;;5111101;28;20217;-56
2022/01/10 12:01:53;;;;;;;19.60;14.60;;;6.60;99.90;;;;;;5091856;28;20255;-56
2022/01/10 12:04:22;;;;;;;18.63;11.17;;;6.70;99.90;;;;;;5090777;28;20275;-56
2022/01/10 12:06:53;;;;;;;16.60;11.27;;;6.80;99.90;;;;;;5090965;28;20623;-57
2022/01/10 12:09:22;;;;;;;16.33;9.37;;;6.80;99.90;;;;;;5104550;28;20219;-57
2022/01/10 12:11:52;;;;;;;16.57;7.70;;;6.80;99.90;;;;;;5111729;28;20191;-57
2022/01/10 12:14:21;;;;;;;14.60;5.47;;;6.80;99.90;;;;;;5111630;28;20228;-57
2022/01/10 12:16:50;;;;;;;10.47;4.70;;;6.90;99.90;;;;;;5111435;28;20733;-56
2022/01/10 12:19:19;;;;;;;13.10;5.30;;;6.80;99.90;;;;;;5121883;27;20313;-56
2022/01/10 12:21:47;;;;;;;12.50;5.17;;;6.80;99.90;;;;;;5112569;28;20725;-56
2022/01/10 12:24:18;;;;;;;11.47;5.27;;;6.70;99.90;;;;;;5111606;28;20237;-56
2022/01/10 12:26:46;;;;;;;12.57;5.10;;;6.70;99.90;;;;;;5111501;28;20253;-57
2022/01/10 12:29:16;;;;;;;17.33;5.80;;;6.70;99.90;;;;;;5110690;28;20229;-56
2022/01/10 12:31:47;;;;;;;18.10;7.80;;;6.60;99.90;;;;;;5111428;28;20256;-56
2022/01/10 12:34:16;;;;;;;10.60;5.00;;;6.60;99.90;;;;;;5111601;28;20245;-57
2022/01/10 12:36:46;;;;;;;12.93;5.37;;;6.60;99.90;;;;;;5111788;28;20213;-56
2022/01/10 12:39:21;;;;;;;13.90;4.87;;;6.70;99.90;;;;;;5111094;28;20228;-56
2022/01/10 12:41:50;;;;;;;10.13;5.00;;;6.60;99.90;;;;;;5111708;28;20669;-56
2022/01/10 12:44:19;;;;;;;13.93;5.70;;;6.60;99.90;;;;;;5094804;28;20199;-56
2022/01/10 12:46:47;;;;;;;16.03;5.30;;;6.60;99.90;;;;;;5110759;28;20229;-55
2022/01/10 12:49:16;;;;;;;10.60;4.87;;;6.60;99.90;;;;;;5100170;28;20220;-56
2022/01/10 12:51:46;;;;;;;13.30;5.27;;;6.70;99.90;;;;;;5093698;28;20235;-56
2022/01/10 12:54:17;;;;;;;13.33;5.83;;;6.70;99.90;;;;;;5109133;28;20221;-56
2022/01/10 12:56:46;;;;;;;16.93;5.77;;;6.70;99.90;;;;;;5110719;28;20267;-56